Time;durP1;ratioP1;P1;durP2;ratioP2;P2;SDS_P1;SDS_P2;PMS_P1;PMS_P2;Temp;Humidity;BMP_temperature;BMP_pressure;BME280_temperature;BME280_humidity;BME280_pressure;Samples;Min_cycle;Max_cycle;Signal;HPM_P1;HPM_P2
2022/04/29 00:01:03;;;;;;;4.10;3.70;;;13.00;37.30;;;10.62;41.12;102520.78;12243246;19;20031;-79
2022/04/29 00:05:05;;;;;;;3.92;3.38;;;12.80;37.40;;;10.45;41.22;102504.69;12236828;19;20078;-79
2022/04/29 00:09:06;;;;;;;5.57;3.63;;;12.90;37.50;;;10.41;41.11;102509.13;12236465;19;20021;-79
2022/04/29 00:13:12;;;;;;;3.72;3.28;;;12.70;37.60;;;10.19;41.37;102477.44;12238824;19;20015;-79
2022/04/29 00:17:14;;;;;;;4.47;3.13;;;12.90;37.70;;;10.49;41.25;102527.22;12240652;19;20479;-79
2022/04/29 00:21:15;;;;;;;7.53;3.75;;;12.80;37.70;;;10.60;41.23;102542.59;12238779;19;20014;-79
2022/04/29 00:25:17;;;;;;;3.63;3.33;;;12.80;37.80;;;10.43;41.27;102513.47;12241903;19;20044;-79
2022/04/29 00:29:19;;;;;;;4.40;3.55;;;12.80;37.80;;;10.48;41.33;102530.72;12237435;19;20020;-78
2022/04/29 00:33:21;;;;;;;3.47;3.15;;;13.00;37.90;;;10.53;41.25;102554.09;12239617;19;20022;-79
2022/04/29 00:37:22;;;;;;;3.90;3.38;;;12.70;37.90;;;10.33;41.45;102529.34;12241392;19;20013;-79
2022/04/29 00:41:24;;;;;;;4.88;3.08;;;12.60;37.90;;;10.36;41.58;102531.03;12238158;19;20052;-79
2022/04/29 00:45:26;;;;;;;7.50;3.88;;;12.60;38.00;;;10.20;41.67;102510.47;12238867;19;20017;-79
2022/04/29 00:49:28;;;;;;;4.82;3.75;;;12.60;38.00;;;10.37;41.82;102543.22;12236960;19;20033;-79
2022/04/29 00:53:30;;;;;;;4.05;3.45;;;12.60;38.10;;;10.21;41.81;102540.09;12238756;19;20392;-79
2022/04/29 00:58:00;;;;;;;4.32;3.92;;;12.50;38.10;;;10.21;41.97;102547.91;12238855;19;20002;-79
2022/04/29 01:02:07;;;;;;;4.75;3.85;;;12.50;38.30;;;10.04;41.88;102530.03;12239031;19;20030;-79
2022/04/29 01:06:09;;;;;;;4.82;3.83;;;12.40;38.20;;;10.02;41.84;102520.50;12239740;19;20358;-79
2022/04/29 01:10:13;;;;;;;3.78;3.22;;;12.60;38.30;;;10.04;41.96;102530.03;12239576;19;20421;-79
2022/04/29 01:14:15;;;;;;;4.53;3.25;;;12.40;38.30;;;9.80;41.87;102501.91;12235411;19;20022;-79
2022/04/29 01:18:18;;;;;;;4.53;3.95;;;12.30;38.30;;;9.85;42.02;102518.31;12237501;19;20376;-79
2022/04/29 01:22:20;;;;;;;5.63;3.55;;;12.10;38.30;;;9.86;41.98;102525.25;12236588;19;20495;-79
2022/04/29 01:26:21;;;;;;;3.75;3.05;;;12.20;38.40;;;9.85;42.20;102533.97;12236747;19;20070;-79
2022/04/29 01:30:25;;;;;;;3.55;3.03;;;12.00;38.40;;;9.65;42.25;102503.13;12236522;19;20010;-79
2022/04/29 01:34:28;;;;;;;4.53;3.30;;;12.10;38.60;;;9.69;42.29;102518.69;12234457;19;20090;-79
2022/04/29 01:38:29;;;;;;;5.22;3.63;;;11.90;38.60;;;9.63;42.37;102515.34;12235985;19;20031;-79
2022/04/29 01:42:33;;;;;;;4.63;3.45;;;12.00;38.70;;;9.56;42.47;102506.81;12234512;19;20482;-79
2022/04/29 01:46:35;;;;;;;4.72;3.33;;;12.00;38.70;;;9.59;42.44;102506.72;12235853;19;20019;-79
2022/04/29 01:51:06;;;;;;;3.92;3.38;;;11.90;38.70;;;9.54;42.45;102508.59;12238404;19;20024;-79
2022/04/29 01:55:07;;;;;;;4.25;3.15;;;11.80;38.70;;;9.43;42.53;102487.97;12237288;19;20361;-79
2022/04/29 01:59:09;;;;;;;4.43;3.30;;;11.80;38.70;;;9.40;42.63;102485.41;12231498;19;20015;-79
2022/04/29 02:03:19;;;;;;;4.35;3.33;;;11.80;38.90;;;9.43;42.52;102521.00;12234725;19;20014;-79
2022/04/29 02:07:21;;;;;;;3.90;3.38;;;11.70;38.70;;;9.28;42.66;102519.56;12233988;19;20480;-79
2022/04/29 02:11:23;;;;;;;3.78;3.20;;;11.60;38.70;;;9.00;42.87;102496.69;12243582;19;20026;-79
2022/04/29 02:16:00;;;;;;;3.03;2.72;;;11.50;38.70;;;8.88;42.68;102485.63;12247289;19;20025;-79
2022/04/29 02:20:03;;;;;;;5.30;2.90;;;11.60;38.80;;;9.06;42.86;102516.53;12248345;19;20050;-79
2022/04/29 02:24:05;;;;;;;3.05;2.55;;;11.50;38.90;;;8.91;42.99;102491.66;12245159;19;20010;-79
2022/04/29 02:28:07;;;;;;;5.22;2.55;;;11.40;38.90;;;9.04;42.81;102519.16;12246378;19;20741;-78
2022/04/29 02:32:09;;;;;;;3.90;2.90;;;11.30;39.00;;;8.92;43.15;102488.16;12243313;19;20342;-79
2022/04/29 02:36:11;;;;;;;3.83;3.15;;;11.10;39.00;;;9.08;43.05;102515.63;12246511;19;20524;-79
2022/04/29 02:40:13;;;;;;;3.55;2.85;;;11.10;39.00;;;8.98;43.17;102505.41;12243853;19;20018;-79
2022/04/29 02:44:16;;;;;;;3.53;3.20;;;11.50;39.20;;;8.90;43.11;102495.13;12241250;19;20014;-78
2022/04/29 02:48:18;;;;;;;4.93;3.47;;;11.30;39.50;;;8.95;43.18;102515.91;12243122;19;20038;-79
2022/04/29 02:52:20;;;;;;;3.58;3.28;;;11.10;39.10;;;8.91;43.29;102515.09;12245381;19;20010;-78
2022/04/29 02:56:22;;;;;;;5.63;3.65;;;11.20;39.10;;;8.86;43.39;102511.72;12244769;19;20014;-79
2022/04/29 03:00:41;;;;;;;5.43;3.97;;;11.20;39.20;;;8.77;43.43;102509.28;12245955;19;20011;-79
2022/04/29 03:04:43;;;;;;;5.30;3.63;;;11.10;39.20;;;8.38;43.28;102455.28;12241747;19;20090;-79
2022/04/29 03:08:45;;;;;;;3.92;3.35;;;11.10;39.20;;;8.42;43.25;102445.69;12242539;19;20033;-79
2022/04/29 03:12:47;;;;;;;4.57;3.67;;;11.10;39.30;;;8.60;43.27;102488.78;12240315;19;20031;-79
2022/04/29 03:16:58;;;;;;;3.75;3.38;;;10.90;39.10;;;8.61;43.39;102495.69;12243070;19;20048;-79
2022/04/29 03:21:00;;;;;;;3.63;2.88;;;11.00;39.10;;;8.46;43.49;102472.56;12243316;19;20444;-79
2022/04/29 03:25:06;;;;;;;3.40;3.10;;;10.90;39.10;;;8.37;43.56;102473.53;12244283;19;20074;-79
2022/04/29 03:29:07;;;;;;;4.88;3.50;;;10.90;39.10;;;8.43;43.53;102489.09;12238089;19;20015;-78
2022/04/29 03:33:11;;;;;;;4.93;3.13;;;10.80;39.20;;;8.03;43.36;102418.63;12236859;19;20026;-80
2022/04/29 03:37:15;;;;;;;3.17;2.90;;;10.80;39.20;;;8.44;43.46;102489.94;12242004;19;20056;-79
2022/04/29 03:41:17;;;;;;;3.50;3.20;;;10.80;39.30;;;8.25;43.68;102459.00;12238901;19;20070;-79
2022/04/29 03:45:21;;;;;;;3.53;3.10;;;10.90;39.40;;;8.46;43.56;102499.44;12240127;19;20333;-80
2022/04/29 03:49:37;;;;;;;4.55;3.15;;;10.80;39.40;;;8.04;43.85;102433.34;12238831;19;20350;-79
2022/04/29 03:53:53;;;;;;;3.33;2.85;;;10.80;39.40;;;8.46;43.69;102503.78;12239613;19;20067;-79
2022/04/29 03:57:57;;;;;;;6.13;2.83;;;10.80;39.50;;;8.49;43.88;102511.53;12242117;19;20011;-79
2022/04/29 04:01:59;;;;;;;2.85;2.65;;;10.70;39.50;;;8.26;43.85;102473.72;12238914;19;20045;-79
2022/04/29 04:10:20;;;;;;;8.25;3.72;;;10.70;39.50;;;8.47;43.71;102506.34;12238977;19;20022;-79
2022/04/29 04:14:23;;;;;;;5.78;2.88;;;10.80;39.60;;;8.41;43.68;102509.91;12237938;19;20488;-79
2022/04/29 04:18:25;;;;;;;3.10;2.78;;;10.80;39.50;;;8.35;43.92;102501.34;12237992;19;20378;-79
2022/04/29 04:22:27;;;;;;;5.50;3.20;;;10.80;39.50;;;8.41;43.82;102506.47;12238323;19;20019;-79
2022/04/29 04:26:29;;;;;;;3.33;3.03;;;10.70;39.60;;;8.38;44.02;102507.34;12238740;19;20035;-79
2022/04/29 04:30:34;;;;;;;;;;;10.60;39.60;;;8.35;43.69;102512.59;12240469;19;20046;-79
2022/04/29 04:34:51;;;;;;;5.95;2.05;;;10.70;39.40;;;8.14;43.87;102498.19;12234258;19;19910;-79
2022/04/29 04:38:53;;;;;;;3.10;2.80;;;10.70;39.50;;;8.26;44.07;102514.50;12218641;19;20086;-79
2022/04/29 04:42:54;;;;;;;3.55;2.90;;;10.70;39.70;;;8.23;44.11;102502.38;12237023;19;20026;-80
2022/04/29 04:47:07;;;;;;;2.58;2.30;;;10.50;39.70;;;7.81;44.05;102442.38;12234756;19;20026;-79
2022/04/29 04:51:29;;;;;;;2.55;2.35;;;10.60;40.00;;;8.13;44.21;102498.25;12235067;19;20460;-79
2022/04/29 04:55:37;;;;;;;3.47;2.78;;;10.50;40.00;;;8.23;44.22;102522.34;12237843;19;20344;-79
2022/04/29 04:59:39;;;;;;;3.53;2.60;;;10.60;40.10;;;8.30;44.41;102526.59;12238797;19;20022;-79
2022/04/29 05:03:43;;;;;;;4.50;2.90;;;10.60;40.20;;;8.01;44.52;102465.47;12232567;19;20015;-79
2022/04/29 05:08:03;;;;;;;2.80;2.60;;;10.70;40.50;;;8.45;44.61;102528.94;12229828;19;20094;-79
2022/04/29 05:12:05;;;;;;;3.42;2.75;;;10.80;40.60;;;8.37;44.63;102507.34;12226946;19;20455;-79
2022/04/29 05:16:22;;;;;;;3.00;2.80;;;10.80;40.70;;;8.47;44.67;102516.75;12234894;19;20033;-79
2022/04/29 05:20:44;;;;;;;3.33;3.00;;;10.70;40.60;;;8.62;44.91;102520.84;12234309;19;20070;-79
2022/04/29 05:24:48;;;;;;;4.47;2.83;;;11.00;41.00;;;8.55;44.90;102483.63;12228645;19;20038;-79
2022/04/29 05:29:22;;;;;;;2.92;2.63;;;11.10;41.10;;;8.96;44.84;102530.63;12226808;19;20460;-79
2022/04/29 05:33:46;;;;;;;5.78;3.33;;;11.20;41.20;;;8.96;44.94;102505.44;12222685;19;20013;-79
2022/04/29 05:38:07;;;;;;;4.07;3.05;;;11.10;41.40;;;9.26;45.06;102523.94;12231693;19;20623;-79
2022/04/29 05:42:18;;;;;;;4.10;3.13;;;11.20;41.50;;;9.34;45.03;102510.75;12230126;19;20035;-79
2022/04/29 05:46:19;;;;;;;2.75;2.55;;;11.50;41.80;;;9.65;45.07;102531.81;12231540;19;20035;-79
2022/04/29 05:50:21;;;;;;;6.15;3.10;;;11.50;41.80;;;9.77;45.20;102521.09;12240748;19;20499;-79
2022/04/29 05:54:22;;;;;;;2.78;2.53;;;11.80;42.00;;;9.72;45.37;102470.78;12238740;19;20029;-79
2022/04/29 05:58:25;;;;;;;3.20;2.80;;;11.90;42.30;;;10.43;45.48;102530.00;12242672;19;20022;-79
2022/04/29 06:02:47;;;;;;;3.30;2.95;;;12.30;42.50;;;10.78;45.28;102533.44;12241963;19;20419;-79
2022/04/29 06:06:53;;;;;;;2.50;2.28;;;12.60;42.30;;;11.03;45.28;102518.78;12242040;19;20679;-78
2022/04/29 06:10:54;;;;;;;6.00;2.35;;;12.70;42.00;;;11.28;45.15;102507.59;12244434;19;20603;-79
2022/04/29 06:14:56;;;;;;;3.97;2.30;;;13.20;41.60;;;11.33;44.95;102491.78;12235027;19;20405;-81
2022/04/29 06:19:16;;;;;;;2.65;2.10;;;13.30;41.40;;;11.57;44.95;102509.34;12240674;19;20019;-78
2022/04/29 06:23:37;;;;;;;5.82;3.50;;;13.50;41.10;;;11.80;45.06;102526.97;12237833;19;20006;-79
2022/04/29 06:27:39;;;;;;;2.15;1.90;;;13.80;41.20;;;11.87;44.85;102519.81;12239677;19;20078;-78
2022/04/29 06:31:40;;;;;;;4.00;2.33;;;13.90;41.10;;;12.01;44.79;102514.97;12238298;19;20088;-79
2022/04/29 06:36:20;;;;;;;1.98;1.70;;;13.90;40.70;;;12.17;44.70;102528.41;12238774;19;20034;-78
2022/04/29 06:40:28;;;;;;;3.38;2.40;;;14.30;40.50;;;12.20;44.62;102528.31;12237345;19;20018;-78
2022/04/29 06:44:32;;;;;;;1.98;1.50;;;14.40;40.10;;;12.32;44.37;102519.22;12237091;19;20010;-82
2022/04/29 06:48:58;;;;;;;13.90;3.03;;;14.50;39.80;;;12.61;44.37;102536.56;12234238;19;20107;-79
2022/04/29 06:53:19;;;;;;;1.88;1.10;;;14.70;39.80;;;12.46;44.08;102484.69;12240159;19;20047;-79
2022/04/29 06:57:21;;;;;;;2.33;1.45;;;14.80;39.40;;;12.92;44.06;102527.63;12238923;19;20018;-80
2022/04/29 07:01:23;;;;;;;1.88;1.25;;;15.00;39.20;;;12.97;43.71;102520.44;12240217;19;20471;-79
2022/04/29 07:05:25;;;;;;;6.05;1.30;;;15.10;38.80;;;13.16;43.63;102523.25;12237661;19;20011;-80
2022/04/29 07:09:27;;;;;;;1.30;1.20;;;15.20;38.60;;;12.95;43.46;102481.16;12232649;19;20033;-80
2022/04/29 07:13:51;;;;;;;1.48;1.27;;;15.30;38.30;;;13.47;43.26;102528.19;12238881;19;20051;-83
2022/04/29 07:17:53;;;;;;;1.27;1.13;;;15.50;38.30;;;13.49;43.24;102511.47;12240209;19;20006;-79
2022/04/29 07:21:55;;;;;;;2.40;1.08;;;15.70;38.20;;;13.86;42.97;102538.94;12237564;19;20078;-80
2022/04/29 07:25:58;;;;;;;5.10;0.95;;;15.80;38.20;;;14.12;42.85;102530.00;12239648;19;20010;-80
2022/04/29 07:30:01;;;;;;;6.18;0.98;;;15.90;38.10;;;14.35;42.63;102533.44;12237498;19;20010;-81
2022/04/29 07:34:14;;;;;;;5.43;1.17;;;16.00;37.50;;;14.53;42.45;102527.44;12237250;19;20014;-81
2022/04/29 07:42:58;;;;;;;0.95;0.82;;;16.60;36.70;;;14.75;41.86;102497.56;12235956;19;20010;-81
2022/04/29 07:47:02;;;;;;;1.10;0.70;;;16.80;36.40;;;15.15;41.52;102530.84;12237213;19;20528;-80
2022/04/29 07:51:16;;;;;;;2.70;0.60;;;17.00;36.10;;;15.51;41.40;102529.22;12235949;19;20356;-80
2022/04/29 07:55:18;;;;;;;1.42;0.68;;;17.30;36.40;;;15.44;41.18;102483.88;12234924;19;20035;-81
2022/04/29 07:59:20;;;;;;;2.10;1.00;;;17.30;36.20;;;15.78;41.07;102498.94;12237982;19;20019;-82
2022/04/29 08:03:23;;;;;;;2.05;0.73;;;17.70;36.10;;;16.08;41.04;102516.81;12232296;19;20015;-81
2022/04/29 08:07:33;;;;;;;0.75;0.60;;;17.70;35.80;;;16.33;40.76;102524.31;12231341;19;20011;-80
2022/04/29 08:11:37;;;;;;;1.30;1.00;;;18.10;35.70;;;16.35;40.64;102509.28;12233605;19;20018;-81
2022/04/29 08:16:01;;;;;;;1.10;0.70;;;18.10;35.50;;;16.58;40.52;102518.69;12238764;19;20022;-80
2022/04/29 08:20:19;;;;;;;1.33;0.70;;;18.40;35.80;;;16.64;40.29;102499.03;12231762;19;20010;-80
2022/04/29 08:24:23;;;;;;;0.88;0.60;;;18.60;35.30;;;16.84;40.09;102506.75;12230838;19;20082;-80
2022/04/29 08:28:26;;;;;;;2.88;0.75;;;18.80;35.10;;;17.00;40.02;102491.81;12232184;19;20032;-80
2022/04/29 08:32:28;;;;;;;1.58;1.15;;;19.00;35.10;;;17.38;39.75;102511.78;12234811;19;20078;-80
2022/04/29 08:36:30;;;;;;;2.95;0.70;;;19.20;34.90;;;17.37;39.22;102488.97;12228880;19;20389;-81
2022/04/29 08:40:31;;;;;;;1.45;0.85;;;19.30;34.60;;;17.57;39.33;102506.31;12234738;19;20027;-81
2022/04/29 08:44:34;;;;;;;1.58;0.82;;;19.40;34.60;;;17.32;38.99;102449.59;12228926;19;20018;-81
2022/04/29 08:49:02;;;;;;;0.77;0.60;;;19.50;34.10;;;17.77;38.88;102505.19;12230340;19;20025;-81
2022/04/29 08:53:05;;;;;;;1.02;0.93;;;19.70;34.20;;;17.76;39.08;102485.00;12232937;19;20038;-80
2022/04/29 09:01:28;;;;;;;2.22;0.90;;;19.90;34.10;;;18.09;38.42;102492.78;12234077;19;20015;-81
2022/04/29 09:05:31;;;;;;;3.17;1.30;;;20.00;33.80;;;18.25;38.53;102492.72;12232641;19;20062;-81
2022/04/29 09:09:33;;;;;;;3.38;1.88;;;20.10;33.90;;;18.39;38.32;102484.84;12231709;19;19999;-81
2022/04/29 09:13:39;;;;;;;1.90;1.35;;;20.20;34.00;;;18.63;38.05;102508.09;12231983;19;20029;-81
2022/04/29 09:17:47;;;;;;;1.85;1.60;;;20.30;33.90;;;18.68;37.89;102484.84;12231353;19;20018;-81
2022/04/29 09:22:07;;;;;;;2.67;1.70;;;20.60;33.80;;;18.57;37.54;102456.41;12242333;19;20015;-83
2022/04/29 09:26:35;;;;;;;2.70;1.80;;;20.70;33.70;;;18.94;38.08;102485.94;12242497;19;20043;-84
2022/04/29 09:30:56;;;;;;;5.05;1.63;;;20.80;33.90;;;18.93;38.16;102473.63;12220576;19;20014;-86
2022/04/29 09:35:33;;;;;;;3.35;1.52;;;20.90;33.80;;;19.10;37.59;102480.53;12222364;19;20319;-83
2022/04/29 09:39:56;;;;;;;1.65;1.25;;;21.00;33.40;;;19.17;37.43;102471.22;12217179;19;20015;-83
2022/04/29 09:43:58;;;;;;;2.60;1.17;;;21.10;33.30;;;19.10;37.61;102462.81;12215140;19;20018;-82
2022/04/29 09:48:00;;;;;;;1.35;0.98;;;21.20;33.50;;;19.31;37.43;102481.81;12215956;19;20022;-84
2022/04/29 09:52:02;;;;;;;1.65;1.17;;;21.10;33.20;;;19.42;37.51;102491.72;12219844;19;20078;-82
2022/04/29 09:56:12;;;;;;;3.13;1.10;;;21.30;33.10;;;19.15;36.88;102423.66;12220636;19;20082;-82
2022/04/29 10:00:14;;;;;;;4.05;1.10;;;21.30;32.70;;;19.40;36.98;102451.22;12220847;19;20015;-83
2022/04/29 10:04:17;;;;;;;6.85;1.60;;;21.40;32.90;;;19.57;36.91;102473.94;12240306;19;20010;-82
2022/04/29 10:08:19;;;;;;;1.52;1.27;;;21.40;33.10;;;19.67;36.93;102475.09;12239696;19;20037;-91
2022/04/29 10:12:24;;;;;;;4.18;1.58;;;21.50;33.00;;;19.59;36.78;102446.41;12241472;19;20484;-87
2022/04/29 10:16:34;;;;;;;4.10;1.25;;;21.70;32.70;;;19.75;36.51;102450.72;12242614;19;20506;-82
2022/04/29 10:25:00;;;;;;;1.58;1.08;;;21.70;32.70;;;19.94;36.23;102450.34;12240388;19;20017;-92
2022/04/29 10:29:02;;;;;;;3.70;1.30;;;21.80;32.50;;;19.98;36.02;102457.13;12235277;19;20094;-82
2022/04/29 10:33:20;;;;;;;2.63;1.55;;;21.90;32.30;;;19.72;35.98;102413.81;12239245;19;20467;-82
2022/04/29 10:37:32;;;;;;;3.17;1.10;;;21.90;32.20;;;19.92;35.96;102449.59;12239817;19;20018;-80
2022/04/29 10:41:34;;;;;;;2.40;1.08;;;21.70;32.00;;;20.05;35.93;102458.41;12240543;19;20018;-81
2022/04/29 10:46:05;;;;;;;2.08;1.00;;;21.90;32.10;;;20.17;35.41;102444.34;12239586;19;20011;-81
2022/04/29 10:50:37;;;;;;;1.77;1.00;;;22.00;31.70;;;20.23;35.27;102429.81;12231220;19;20025;-80
2022/04/29 10:54:58;;;;;;;2.85;1.13;;;22.00;31.80;;;20.19;34.92;102413.22;12234242;19;20019;-81
2022/04/29 10:59:24;;;;;;;2.60;1.77;;;22.00;31.30;;;20.15;35.47;102421.53;12239281;19;20559;-80
2022/04/29 11:03:41;;;;;;;1.50;1.02;;;22.00;31.40;;;20.26;34.76;102416.31;12237260;19;20053;-80
2022/04/29 11:07:48;;;;;;;1.70;0.80;;;22.10;31.00;;;20.35;34.83;102399.75;12237460;19;20535;-86
2022/04/29 11:11:52;;;;;;;2.63;1.13;;;22.20;31.20;;;20.53;34.59;102398.50;12240534;19;20014;-80
2022/04/29 11:16:17;;;;;;;1.95;1.00;;;22.40;31.20;;;20.64;34.70;102402.19;12239279;19;20010;-80
2022/04/29 11:20:38;;;;;;;2.30;1.05;;;22.50;30.90;;;20.70;34.70;102401.75;12240417;19;20026;-81
2022/04/29 11:24:43;;;;;;;2.03;1.10;;;22.40;30.90;;;20.75;34.41;102386.34;12233718;19;20044;-80
2022/04/29 11:28:53;;;;;;;2.35;1.35;;;22.60;31.10;;;20.91;34.32;102383.44;12236872;19;20012;-80
2022/04/29 11:33:14;;;;;;;2.92;1.00;;;22.50;30.90;;;21.05;34.25;102391.22;12238722;19;20018;-82
2022/04/29 11:37:23;;;;;;;2.10;1.02;;;22.80;30.80;;;21.10;33.62;102378.47;12231837;19;20014;-81
2022/04/29 11:41:27;;;;;;;4.65;1.48;;;22.80;30.60;;;21.00;34.10;102342.91;12238917;19;20019;-80
2022/04/29 11:45:30;;;;;;;4.50;1.15;;;23.00;30.60;;;21.08;33.90;102352.97;12229441;19;20073;-81
2022/04/29 11:49:35;;;;;;;1.55;0.90;;;23.00;30.50;;;21.27;33.69;102374.56;12235979;19;20015;-81
2022/04/29 11:53:58;;;;;;;2.05;1.27;;;23.00;30.10;;;21.27;32.65;102376.38;12236998;19;20011;-82
2022/04/29 11:58:01;;;;;;;3.08;1.30;;;23.10;29.90;;;20.91;33.15;102336.47;12233848;19;20011;-82
2022/04/29 12:02:03;;;;;;;1.70;1.20;;;23.10;29.90;;;20.99;33.16;102341.22;12235705;19;20030;-82
2022/04/29 12:06:05;;;;;;;5.50;1.50;;;23.00;30.00;;;21.12;32.99;102342.00;12233273;19;20018;-82
2022/04/29 12:10:22;;;;;;;6.30;1.48;;;23.00;30.00;;;21.28;32.56;102351.47;12230527;19;20024;-81
2022/04/29 12:14:23;;;;;;;1.98;1.33;;;23.10;29.80;;;21.03;32.72;102297.50;12229252;19;20010;-81
2022/04/29 12:18:45;;;;;;;1.85;1.10;;;23.10;29.90;;;21.32;32.45;102332.53;12227735;19;20010;-81
2022/04/29 12:22:49;;;;;;;2.47;1.40;;;23.10;29.80;;;21.34;32.21;102329.78;12230018;19;20010;-81
2022/04/29 12:27:08;;;;;;;3.15;1.40;;;23.00;29.70;;;21.34;31.85;102322.66;12229704;19;20038;-82
2022/04/29 12:35:35;;;;;;;1.52;1.42;;;23.10;29.90;;;21.56;32.20;102315.72;12228344;19;20023;-82
2022/04/29 12:39:44;;;;;;;3.53;1.92;;;23.20;29.80;;;21.66;31.86;102314.06;12230192;19;20579;-82
2022/04/29 12:43:46;;;;;;;1.42;1.10;;;23.30;29.70;;;21.77;32.39;102300.78;12231671;19;20030;-81
2022/04/29 12:48:01;;;;;;;1.75;1.40;;;23.40;30.00;;;21.61;31.85;102250.59;12230296;19;20025;-81
2022/04/29 12:52:04;;;;;;;1.97;1.30;;;23.50;29.70;;;21.98;31.96;102302.72;12233058;19;20019;-81
2022/04/29 12:56:06;;;;;;;3.92;1.80;;;23.70;29.70;;;21.94;31.92;102298.63;12226330;19;20010;-81
2022/04/29 13:00:23;;;;;;;1.88;1.40;;;23.70;29.40;;;21.75;31.38;102281.44;12226111;19;20031;-88
2022/04/29 13:04:24;;;;;;;1.38;1.00;;;23.70;29.20;;;21.68;31.45;102288.19;12231817;19;20029;-81
2022/04/29 13:08:42;;;;;;;3.20;1.13;;;23.50;29.20;;;21.57;31.92;102278.38;12233800;19;20010;-81
2022/04/29 13:12:45;;;;;;;3.92;1.30;;;23.50;29.30;;;21.47;31.60;102268.56;12229766;19;20107;-82
2022/04/29 13:16:57;;;;;;;1.80;1.50;;;23.30;29.40;;;21.55;31.75;102259.06;12231395;19;20019;-82
2022/04/29 13:21:00;;;;;;;2.53;1.70;;;23.30;29.50;;;21.44;31.42;102216.50;12233616;19;20022;-82
2022/04/29 13:25:07;;;;;;;2.58;1.70;;;23.20;29.50;;;21.56;31.63;102226.19;12231468;19;20007;-80
2022/04/29 13:29:09;;;;;;;2.20;1.50;;;23.40;29.60;;;21.81;31.58;102245.53;12230213;19;20119;-80
2022/04/29 13:33:11;;;;;;;2.03;1.65;;;23.50;29.60;;;21.84;31.45;102227.50;12231811;19;20023;-82
2022/04/29 13:37:13;;;;;;;4.05;1.98;;;23.60;29.50;;;21.89;31.33;102219.16;12228905;19;20024;-82
2022/04/29 13:41:16;;;;;;;3.03;1.95;;;23.70;29.40;;;22.01;31.41;102228.00;12231019;19;20015;-86
2022/04/29 13:45:17;;;;;;;4.88;1.90;;;23.70;29.40;;;22.02;31.33;102221.72;12229472;19;20070;-82
2022/04/29 13:49:19;;;;;;;5.72;2.25;;;23.80;29.30;;;22.18;31.04;102227.53;12228231;19;20011;-82
2022/04/29 13:53:21;;;;;;;4.18;2.20;;;23.90;29.20;;;21.95;31.01;102193.91;12229953;19;20019;-83
2022/04/29 13:57:23;;;;;;;2.28;1.58;;;23.80;29.10;;;22.10;30.64;102213.97;12231349;19;20033;-82
2022/04/29 14:01:24;;;;;;;3.05;1.50;;;23.90;28.90;;;22.00;30.55;102197.88;12230768;19;20015;-82
2022/04/29 14:05:28;;;;;;;7.15;1.55;;;24.10;28.90;;;22.00;30.51;102197.03;12227030;19;20013;-82
2022/04/29 14:09:30;;;;;;;3.60;1.70;;;23.90;28.80;;;22.07;30.16;102211.56;12240387;19;20052;-82
2022/04/29 14:13:33;;;;;;;2.03;1.55;;;24.10;28.80;;;21.96;30.08;102201.75;12235972;19;20025;-82
2022/04/29 14:17:36;;;;;;;2.50;1.20;;;23.80;28.70;;;21.95;30.13;102205.38;12242107;19;20100;-82
2022/04/29 14:21:37;;;;;;;2.47;1.50;;;23.80;28.70;;;21.95;30.24;102200.06;12234008;19;20011;-82
2022/04/29 14:25:39;;;;;;;2.35;1.58;;;23.80;28.70;;;21.79;30.20;102184.50;12239869;19;20042;-82
2022/04/29 14:29:42;;;;;;;3.10;1.80;;;23.70;28.60;;;21.68;30.18;102163.22;12238383;19;20039;-82
2022/04/29 14:33:43;;;;;;;2.60;1.75;;;23.70;28.60;;;21.67;30.18;102166.84;12239396;19;20340;-82
2022/04/29 14:37:45;;;;;;;2.50;1.77;;;23.60;28.70;;;21.69;30.01;102174.72;12235398;19;20010;-82
2022/04/29 14:41:50;;;;;;;2.80;1.55;;;23.60;28.80;;;21.74;30.24;102181.34;12241662;19;20014;-82
2022/04/29 14:45:51;;;;;;;1.63;1.48;;;23.50;28.90;;;21.73;30.13;102173.50;12240345;19;20025;-82
2022/04/29 14:49:53;;;;;;;2.00;1.27;;;23.50;28.90;;;21.68;30.33;102173.00;12236034;19;20011;-82
2022/04/29 14:53:54;;;;;;;3.47;1.27;;;23.50;29.00;;;21.70;30.01;102171.09;12238796;19;20644;-82
2022/04/29 14:57:56;;;;;;;2.88;1.30;;;23.30;28.90;;;21.74;29.92;102169.84;12233599;19;20786;-82
2022/04/29 15:01:58;;;;;;;1.95;1.27;;;23.50;28.90;;;21.69;30.31;102150.78;12239410;19;20014;-82
2022/04/29 15:06:00;;;;;;;2.65;1.38;;;23.40;28.80;;;21.79;29.94;102152.59;12237330;19;20113;-82
2022/04/29 15:18:44;;;;;;;2.50;1.67;;;23.60;28.90;;;21.90;30.11;102146.41;12227218;19;20467;-82
2022/04/29 15:22:46;;;;;;;1.88;1.70;;;23.60;28.70;;;21.85;29.67;102136.13;12235695;19;20018;-82
2022/04/29 15:26:47;;;;;;;2.75;1.40;;;23.60;28.70;;;21.66;29.85;102119.97;12240226;19;20019;-82
2022/04/29 15:30:49;;;;;;;2.47;1.52;;;23.50;28.50;;;21.62;29.48;102134.47;12239779;19;20875;-82
2022/04/29 15:34:50;;;;;;;5.82;1.63;;;23.40;28.30;;;21.44;29.81;102118.16;12235315;19;20512;-82
2022/04/29 15:38:52;;;;;;;2.80;1.52;;;23.50;28.50;;;21.41;29.84;102110.41;12239262;19;20014;-82
2022/04/29 15:42:54;;;;;;;1.92;1.73;;;23.40;28.60;;;21.54;29.87;102137.72;12237375;19;20015;-82
2022/04/29 15:46:55;;;;;;;1.83;1.40;;;23.40;28.70;;;21.48;29.83;102118.78;12236376;19;20039;-82
2022/04/29 15:50:57;;;;;;;2.13;1.35;;;23.40;28.70;;;21.61;29.97;102135.44;12237827;19;20039;-82
2022/04/29 15:54:59;;;;;;;1.40;1.30;;;23.40;28.80;;;21.56;29.89;102119.84;12236217;19;20018;-82
2022/04/29 15:59:01;;;;;;;2.42;2.20;;;23.40;28.60;;;21.53;29.70;102109.47;12238526;19;20074;-82
2022/04/29 16:03:04;;;;;;;1.95;1.38;;;23.40;28.60;;;21.42;29.37;102088.22;12224971;19;20320;-82
2022/04/29 16:07:06;;;;;;;3.80;1.42;;;23.40;28.50;;;21.41;29.69;102097.13;12241207;19;20019;-81
2022/04/29 16:11:08;;;;;;;2.65;1.52;;;23.30;28.30;;;21.46;29.38;102108.25;12239689;19;20375;-82
2022/04/29 16:15:10;;;;;;;1.40;1.20;;;23.30;28.40;;;21.42;29.15;102097.03;12243877;19;20017;-82
2022/04/29 16:27:52;;;;;;;3.33;1.25;;;23.30;28.50;;;21.41;29.51;102099.78;12238726;19;20015;-80
2022/04/29 16:31:54;;;;;;;1.83;1.23;;;23.20;28.50;;;21.39;29.55;102104.41;12237191;19;20061;-80
2022/04/29 16:35:56;;;;;;;1.38;1.15;;;23.00;28.30;;;21.31;29.04;102094.34;12239795;19;20011;-80
2022/04/29 16:39:58;;;;;;;8.13;3.90;;;23.10;28.40;;;21.33;29.32;102096.88;12240902;19;20477;-80
2022/04/29 16:44:00;;;;;;;3.88;2.38;;;23.10;28.50;;;21.31;29.02;102096.16;12236009;19;20018;-80
2022/04/29 16:48:04;;;;;;;3.72;1.88;;;23.00;28.40;;;21.18;29.25;102081.16;12238693;19;20044;-80
2022/04/29 16:52:07;;;;;;;3.67;1.60;;;23.10;28.40;;;21.06;29.28;102063.53;12234410;19;20035;-80
2022/04/29 16:56:11;;;;;;;;;;;23.00;28.50;;;21.07;29.79;102064.41;12234215;19;20566;-80
2022/04/29 17:00:13;;;;;;;1.92;1.25;;;23.00;28.90;;;20.91;29.16;102060.28;12235676;19;19940;-80
2022/04/29 17:04:15;;;;;;;2.50;1.60;;;22.90;28.30;;;20.90;29.34;102071.88;12235792;19;20571;-80
2022/04/29 17:08:17;;;;;;;2.28;1.73;;;22.80;28.60;;;20.94;29.18;102085.75;12234413;19;20509;-80
2022/04/29 17:12:18;;;;;;;2.53;1.52;;;22.60;28.50;;;20.72;29.07;102044.09;12232867;19;20392;-80
2022/04/29 17:16:20;;;;;;;4.82;1.65;;;22.70;28.60;;;20.87;29.32;102080.03;12238097;19;20114;-80
2022/04/29 17:20:21;;;;;;;2.15;1.50;;;22.60;28.70;;;20.77;29.29;102073.78;12238888;19;20007;-80
2022/04/29 17:24:23;;;;;;;2.13;1.23;;;22.50;28.70;;;20.80;29.62;102085.97;12234023;19;20358;-80
2022/04/29 17:28:25;;;;;;;4.75;1.58;;;22.50;28.90;;;20.74;29.63;102080.16;12236518;19;20474;-79
2022/04/29 17:32:26;;;;;;;3.17;1.40;;;22.50;29.00;;;20.63;29.65;102063.34;12236280;19;20353;-79
2022/04/29 17:36:28;;;;;;;3.47;1.40;;;22.40;28.90;;;20.42;29.85;102047.25;12233579;19;20471;-80